sensor_id;sensor_type;location;lat;lon;timestamp;pressure;altitude;pressure_sealevel;temperature;humidity
52032;BME280;38044;45.148;39.604;2022-10-17T00:01:43;102140.00;;;13.80;68.42
52032;BME280;38044;45.148;39.604;2022-10-17T00:04:09;102131.88;;;13.74;68.67
52032;BME280;38044;45.148;39.604;2022-10-17T00:06:36;102146.44;;;13.84;68.49
52032;BME280;38044;45.148;39.604;2022-10-17T00:09:02;102055.22;;;13.24;68.55
52032;BME280;38044;45.148;39.604;2022-10-17T00:11:28;102135.66;;;13.79;68.69
52032;BME280;38044;45.148;39.604;2022-10-17T00:13:54;102158.88;;;13.85;68.65
52032;BME280;38044;45.148;39.604;2022-10-17T00:16:30;102141.59;;;13.81;69.21
52032;BME280;38044;45.148;39.604;2022-10-17T00:18:58;102127.84;;;13.67;69.06
52032;BME280;38044;45.148;39.604;2022-10-17T00:21:24;101990.47;;;12.89;69.09
52032;BME280;38044;45.148;39.604;2022-10-17T00:23:52;102011.53;;;12.92;69.63
52032;BME280;38044;45.148;39.604;2022-10-17T00:26:18;102123.28;;;13.62;69.97
52032;BME280;38044;45.148;39.604;2022-10-17T00:28:49;102151.91;;;13.63;70.52
52032;BME280;38044;45.148;39.604;2022-10-17T00:31:18;102140.03;;;13.59;70.87
52032;BME280;38044;45.148;39.604;2022-10-17T00:33:44;101997.47;;;12.64;71.11
52032;BME280;38044;45.148;39.604;2022-10-17T00:36:16;102031.50;;;12.91;71.17
52032;BME280;38044;45.148;39.604;2022-10-17T00:38:43;102118.97;;;13.51;71.44
52032;BME280;38044;45.148;39.604;2022-10-17T00:41:13;102122.72;;;13.55;71.38
52032;BME280;38044;45.148;39.604;2022-10-17T00:43:59;102157.84;;;13.65;72.96
52032;BME280;38044;45.148;39.604;2022-10-17T00:46:32;102105.44;;;13.20;74.89
52032;BME280;38044;45.148;39.604;2022-10-17T00:48:59;102145.97;;;13.36;76.57
52032;BME280;38044;45.148;39.604;2022-10-17T00:51:32;102157.81;;;13.09;77.79
52032;BME280;38044;45.148;39.604;2022-10-17T00:53:59;102098.38;;;12.58;78.98
52032;BME280;38044;45.148;39.604;2022-10-17T00:56:25;102107.78;;;12.50;80.23
52032;BME280;38044;45.148;39.604;2022-10-17T00:58:52;102135.06;;;12.54;80.43
52032;BME280;38044;45.148;39.604;2022-10-17T01:01:18;102144.75;;;12.55;80.81
52032;BME280;38044;45.148;39.604;2022-10-17T01:03:43;102146.91;;;12.48;80.94
52032;BME280;38044;45.148;39.604;2022-10-17T01:06:09;102086.66;;;12.16;81.44
52032;BME280;38044;45.148;39.604;2022-10-17T01:08:35;102169.03;;;12.55;81.77
52032;BME280;38044;45.148;39.604;2022-10-17T01:11:36;102155.56;;;12.60;81.66
52032;BME280;38044;45.148;39.604;2022-10-17T01:14:34;102151.78;;;12.61;81.66
52032;BME280;38044;45.148;39.604;2022-10-17T01:33:11;102182.84;;;12.79;80.68
52032;BME280;38044;45.148;39.604;2022-10-17T01:35:51;102149.38;;;12.59;80.68
52032;BME280;38044;45.148;39.604;2022-10-17T01:38:25;102178.56;;;12.78;80.46
52032;BME280;38044;45.148;39.604;2022-10-17T01:43:48;102182.34;;;12.87;80.13
52032;BME280;38044;45.148;39.604;2022-10-17T01:48:47;102157.47;;;12.70;80.00
52032;BME280;38044;45.148;39.604;2022-10-17T01:51:20;102195.06;;;12.97;80.09
52032;BME280;38044;45.148;39.604;2022-10-17T01:54:14;102191.03;;;12.99;79.97
52032;BME280;38044;45.148;39.604;2022-10-17T01:56:43;102207.47;;;12.98;79.86
52032;BME280;38044;45.148;39.604;2022-10-17T01:59:17;102089.41;;;12.32;79.53
52032;BME280;38044;45.148;39.604;2022-10-17T02:01:47;102094.56;;;12.33;79.55
52032;BME280;38044;45.148;39.604;2022-10-17T02:04:14;102148.03;;;12.72;79.35
52032;BME280;38044;45.148;39.604;2022-10-17T02:06:41;102191.28;;;12.98;79.56
52032;BME280;38044;45.148;39.604;2022-10-17T02:09:20;102210.72;;;13.10;79.51
52032;BME280;38044;45.148;39.604;2022-10-17T02:17:17;102191.78;;;12.90;78.58
52032;BME280;38044;45.148;39.604;2022-10-17T02:22:24;102158.03;;;12.72;78.40
52032;BME280;38044;45.148;39.604;2022-10-17T02:24:52;102092.34;;;12.20;78.36
52032;BME280;38044;45.148;39.604;2022-10-17T02:27:31;102223.16;;;13.11;78.34
52032;BME280;38044;45.148;39.604;2022-10-17T02:32:54;102058.59;;;12.02;78.41
52032;BME280;38044;45.148;39.604;2022-10-17T02:35:24;102078.31;;;12.18;78.80
52032;BME280;38044;45.148;39.604;2022-10-17T02:37:54;102223.69;;;13.03;78.61
52032;BME280;38044;45.148;39.604;2022-10-17T02:40:21;102205.31;;;13.00;78.92
52032;BME280;38044;45.148;39.604;2022-10-17T02:42:50;102194.75;;;12.83;78.98
52032;BME280;38044;45.148;39.604;2022-10-17T02:45:17;102206.91;;;12.96;78.84
52032;BME280;38044;45.148;39.604;2022-10-17T02:47:55;102049.66;;;12.02;78.57
52032;BME280;38044;45.148;39.604;2022-10-17T02:50:32;102214.47;;;12.99;78.66
52032;BME280;38044;45.148;39.604;2022-10-17T02:53:08;102180.47;;;12.82;78.86
52032;BME280;38044;45.148;39.604;2022-10-17T02:55:45;102059.41;;;12.03;78.94
52032;BME280;38044;45.148;39.604;2022-10-17T02:58:18;102194.50;;;12.90;79.31
52032;BME280;38044;45.148;39.604;2022-10-17T03:00:45;102158.53;;;12.58;79.48
52032;BME280;38044;45.148;39.604;2022-10-17T03:03:22;102180.97;;;12.69;79.57
52032;BME280;38044;45.148;39.604;2022-10-17T03:05:49;102219.03;;;12.78;79.82
52032;BME280;38044;45.148;39.604;2022-10-17T03:08:14;102189.03;;;12.64;80.57
52032;BME280;38044;45.148;39.604;2022-10-17T03:10:40;102074.06;;;11.75;81.39
52032;BME280;38044;45.148;39.604;2022-10-17T03:13:06;102203.50;;;12.37;82.21
52032;BME280;38044;45.148;39.604;2022-10-17T03:15:32;102215.91;;;12.33;82.85
52032;BME280;38044;45.148;39.604;2022-10-17T03:17:58;102189.09;;;12.11;83.47
52032;BME280;38044;45.148;39.604;2022-10-17T03:20:24;102192.00;;;12.05;83.99
52032;BME280;38044;45.148;39.604;2022-10-17T03:22:49;102236.22;;;12.09;84.66
52032;BME280;38044;45.148;39.604;2022-10-17T03:25:15;102232.41;;;12.00;85.51
52032;BME280;38044;45.148;39.604;2022-10-17T03:27:41;102035.31;;;10.64;85.73
52032;BME280;38044;45.148;39.604;2022-10-17T03:30:08;102236.63;;;11.85;85.99
52032;BME280;38044;45.148;39.604;2022-10-17T03:32:34;102235.97;;;11.78;86.39
52032;BME280;38044;45.148;39.604;2022-10-17T03:35:00;102231.63;;;11.72;86.75
52032;BME280;38044;45.148;39.604;2022-10-17T03:37:26;102100.59;;;10.86;86.81
52032;BME280;38044;45.148;39.604;2022-10-17T03:39:52;102260.50;;;11.77;87.12
52032;BME280;38044;45.148;39.604;2022-10-17T03:42:18;102103.44;;;10.74;87.42
52032;BME280;38044;45.148;39.604;2022-10-17T03:44:44;102115.59;;;10.77;87.73
52032;BME280;38044;45.148;39.604;2022-10-17T03:47:10;102263.66;;;11.68;87.96
52032;BME280;38044;45.148;39.604;2022-10-17T03:49:36;102257.72;;;11.66;88.12
52032;BME280;38044;45.148;39.604;2022-10-17T03:52:02;102259.59;;;11.66;88.31
52032;BME280;38044;45.148;39.604;2022-10-17T03:54:28;102268.25;;;11.68;88.31
52032;BME280;38044;45.148;39.604;2022-10-17T03:56:54;102250.38;;;11.57;88.25
52032;BME280;38044;45.148;39.604;2022-10-17T03:59:19;102243.56;;;11.49;88.38
52032;BME280;38044;45.148;39.604;2022-10-17T04:01:45;102249.81;;;11.55;88.53
52032;BME280;38044;45.148;39.604;2022-10-17T04:04:11;102259.19;;;11.52;89.04
52032;BME280;38044;45.148;39.604;2022-10-17T04:06:37;102239.75;;;11.45;88.93
52032;BME280;38044;45.148;39.604;2022-10-17T04:09:04;102248.13;;;11.48;88.96
52032;BME280;38044;45.148;39.604;2022-10-17T04:11:30;102254.84;;;11.46;89.01
52032;BME280;38044;45.148;39.604;2022-10-17T04:13:57;102126.78;;;10.69;89.52
52032;BME280;38044;45.148;39.604;2022-10-17T04:16:24;102269.28;;;11.62;89.47
52032;BME280;38044;45.148;39.604;2022-10-17T04:18:54;102269.28;;;11.62;89.84
52032;BME280;38044;45.148;39.604;2022-10-17T04:21:21;102251.41;;;11.56;89.72
52032;BME280;38044;45.148;39.604;2022-10-17T04:23:47;102254.34;;;11.49;89.82
52032;BME280;38044;45.148;39.604;2022-10-17T04:26:17;102267.34;;;11.57;89.93
52032;BME280;38044;45.148;39.604;2022-10-17T04:28:46;102264.06;;;11.55;89.88
52032;BME280;38044;45.148;39.604;2022-10-17T04:31:15;102157.91;;;10.87;89.99
52032;BME280;38044;45.148;39.604;2022-10-17T04:33:41;102268.16;;;11.58;90.57
52032;BME280;38044;45.148;39.604;2022-10-17T04:36:11;102263.16;;;11.44;90.41
52032;BME280;38044;45.148;39.604;2022-10-17T04:38:38;102279.44;;;11.55;90.40
52032;BME280;38044;45.148;39.604;2022-10-17T04:41:06;102281.56;;;11.53;90.33
52032;BME280;38044;45.148;39.604;2022-10-17T04:43:34;102134.19;;;10.56;90.23
52032;BME280;38044;45.148;39.604;2022-10-17T04:46:04;102289.09;;;11.50;90.72
52032;BME280;38044;45.148;39.604;2022-10-17T04:48:30;102270.88;;;11.36;90.69
52032;BME280;38044;45.148;39.604;2022-10-17T04:50:58;102295.53;;;11.49;90.68
52032;BME280;38044;45.148;39.604;2022-10-17T04:53:25;102293.34;;;11.46;90.60
52032;BME280;38044;45.148;39.604;2022-10-17T04:55:51;102289.22;;;11.39;90.72
52032;BME280;38044;45.148;39.604;2022-10-17T04:58:18;102270.03;;;11.30;90.80
52032;BME280;38044;45.148;39.604;2022-10-17T05:00:44;102275.47;;;11.35;91.21
52032;BME280;38044;45.148;39.604;2022-10-17T05:03:10;102314.66;;;11.48;91.26
52032;BME280;38044;45.148;39.604;2022-10-17T05:05:37;102323.53;;;11.48;91.05
52032;BME280;38044;45.148;39.604;2022-10-17T05:08:04;102314.38;;;11.49;91.04
52032;BME280;38044;45.148;39.604;2022-10-17T05:10:35;102307.69;;;11.52;90.98
52032;BME280;38044;45.148;39.604;2022-10-17T05:13:01;102278.22;;;11.40;91.00
52032;BME280;38044;45.148;39.604;2022-10-17T05:15:27;102305.28;;;11.56;91.01
52032;BME280;38044;45.148;39.604;2022-10-17T05:17:54;102285.53;;;11.45;91.06
52032;BME280;38044;45.148;39.604;2022-10-17T05:20:20;102309.63;;;11.57;91.00
52032;BME280;38044;45.148;39.604;2022-10-17T05:22:46;102190.50;;;10.90;90.97
52032;BME280;38044;45.148;39.604;2022-10-17T05:25:12;102143.31;;;10.55;90.83
52032;BME280;38044;45.148;39.604;2022-10-17T05:27:38;102305.84;;;11.58;90.81
52032;BME280;38044;45.148;39.604;2022-10-17T05:30:05;102322.06;;;11.63;90.93
52032;BME280;38044;45.148;39.604;2022-10-17T05:32:31;102164.88;;;10.60;90.52
52032;BME280;38044;45.148;39.604;2022-10-17T05:34:57;102189.00;;;10.77;90.56
52032;BME280;38044;45.148;39.604;2022-10-17T05:37:23;102292.78;;;11.44;90.53
52032;BME280;38044;45.148;39.604;2022-10-17T05:39:48;102343.34;;;11.64;90.57
52032;BME280;38044;45.148;39.604;2022-10-17T05:42:14;102323.69;;;11.64;90.33
52032;BME280;38044;45.148;39.604;2022-10-17T05:44:40;102345.91;;;11.76;90.05
52032;BME280;38044;45.148;39.604;2022-10-17T05:47:07;102331.25;;;11.67;90.28
52032;BME280;38044;45.148;39.604;2022-10-17T05:49:33;102354.00;;;11.81;89.92
52032;BME280;38044;45.148;39.604;2022-10-17T05:51:59;102353.03;;;11.87;89.90
52032;BME280;38044;45.148;39.604;2022-10-17T05:54:25;102168.50;;;10.71;89.43
52032;BME280;38044;45.148;39.604;2022-10-17T05:56:52;102341.50;;;11.70;89.57
52032;BME280;38044;45.148;39.604;2022-10-17T05:59:18;102331.88;;;11.74;89.68
52032;BME280;38044;45.148;39.604;2022-10-17T06:01:44;102350.91;;;11.89;89.42
52032;BME280;38044;45.148;39.604;2022-10-17T06:04:10;102345.94;;;11.81;89.50
52032;BME280;38044;45.148;39.604;2022-10-17T06:06:37;102342.13;;;11.77;89.47
52032;BME280;38044;45.148;39.604;2022-10-17T06:09:03;102376.31;;;11.99;89.42
52032;BME280;38044;45.148;39.604;2022-10-17T06:11:29;102343.63;;;11.90;89.60
52032;BME280;38044;45.148;39.604;2022-10-17T06:13:55;102367.16;;;12.00;89.52
52032;BME280;38044;45.148;39.604;2022-10-17T06:16:21;102365.00;;;12.02;89.45
52032;BME280;38044;45.148;39.604;2022-10-17T06:18:47;102209.56;;;11.11;89.68
52032;BME280;38044;45.148;39.604;2022-10-17T06:21:16;102338.41;;;11.83;89.47
52032;BME280;38044;45.148;39.604;2022-10-17T06:23:43;102363.50;;;12.11;89.60
52032;BME280;38044;45.148;39.604;2022-10-17T06:26:09;102242.34;;;11.35;89.56
52032;BME280;38044;45.148;39.604;2022-10-17T06:28:35;102359.72;;;12.12;89.59
52032;BME280;38044;45.148;39.604;2022-10-17T06:31:12;102389.28;;;12.34;89.35
52032;BME280;38044;45.148;39.604;2022-10-17T06:33:38;102264.59;;;11.52;89.15
52032;BME280;38044;45.148;39.604;2022-10-17T06:36:06;102260.06;;;11.58;88.95
52032;BME280;38044;45.148;39.604;2022-10-17T06:38:33;102268.78;;;11.70;89.06
52032;BME280;38044;45.148;39.604;2022-10-17T06:41:10;102259.13;;;11.74;88.95
52032;BME280;38044;45.148;39.604;2022-10-17T06:43:38;102395.63;;;12.55;88.46
52032;BME280;38044;45.148;39.604;2022-10-17T06:46:05;102396.22;;;12.62;88.10
52032;BME280;38044;45.148;39.604;2022-10-17T06:48:31;102389.72;;;12.58;87.74
52032;BME280;38044;45.148;39.604;2022-10-17T06:51:00;102349.50;;;12.51;87.38
52032;BME280;38044;45.148;39.604;2022-10-17T06:53:28;102404.97;;;12.84;86.62
52032;BME280;38044;45.148;39.604;2022-10-17T06:55:54;102290.25;;;12.24;86.29
52032;BME280;38044;45.148;39.604;2022-10-17T06:58:26;102373.13;;;12.81;85.83
52032;BME280;38044;45.148;39.604;2022-10-17T07:00:57;102400.22;;;13.02;85.47
52032;BME280;38044;45.148;39.604;2022-10-17T07:03:24;102407.25;;;13.03;84.67
52032;BME280;38044;45.148;39.604;2022-10-17T07:05:51;102390.97;;;12.82;84.58
52032;BME280;38044;45.148;39.604;2022-10-17T07:08:17;102390.88;;;12.72;84.17
52032;BME280;38044;45.148;39.604;2022-10-17T07:10:42;102330.16;;;12.27;84.17
52032;BME280;38044;45.148;39.604;2022-10-17T07:13:08;102448.00;;;12.96;84.19
52032;BME280;38044;45.148;39.604;2022-10-17T07:15:36;102440.63;;;12.87;84.51
52032;BME280;38044;45.148;39.604;2022-10-17T07:18:02;102406.72;;;12.58;84.41
52032;BME280;38044;45.148;39.604;2022-10-17T07:20:28;102420.53;;;12.67;83.93
52032;BME280;38044;45.148;39.604;2022-10-17T07:22:54;102456.78;;;12.76;83.87
52032;BME280;38044;45.148;39.604;2022-10-17T07:25:20;102458.69;;;12.81;84.19
52032;BME280;38044;45.148;39.604;2022-10-17T07:27:47;102309.38;;;11.85;84.03
52032;BME280;38044;45.148;39.604;2022-10-17T07:30:13;102366.72;;;12.13;83.58
52032;BME280;38044;45.148;39.604;2022-10-17T07:32:41;102426.91;;;12.51;83.46
52032;BME280;38044;45.148;39.604;2022-10-17T07:35:07;102469.69;;;12.74;83.63
52032;BME280;38044;45.148;39.604;2022-10-17T07:37:33;102346.63;;;11.93;83.11
52032;BME280;38044;45.148;39.604;2022-10-17T07:39:59;102381.19;;;12.02;82.90
52032;BME280;38044;45.148;39.604;2022-10-17T07:42:25;102489.03;;;12.61;82.80
52032;BME280;38044;45.148;39.604;2022-10-17T07:44:53;102394.13;;;12.00;82.70
52032;BME280;38044;45.148;39.604;2022-10-17T07:47:19;102478.78;;;12.63;82.87
52032;BME280;38044;45.148;39.604;2022-10-17T07:49:46;102486.31;;;12.61;82.18
52032;BME280;38044;45.148;39.604;2022-10-17T07:52:15;102493.38;;;12.62;82.20
52032;BME280;38044;45.148;39.604;2022-10-17T07:54:41;102466.16;;;12.36;82.64
52032;BME280;38044;45.148;39.604;2022-10-17T07:57:08;102487.69;;;12.63;82.38
52032;BME280;38044;45.148;39.604;2022-10-17T07:59:35;102458.41;;;12.45;81.93
52032;BME280;38044;45.148;39.604;2022-10-17T08:02:02;102499.25;;;12.59;81.91
52032;BME280;38044;45.148;39.604;2022-10-17T08:04:28;102339.78;;;11.59;82.22
52032;BME280;38044;45.148;39.604;2022-10-17T08:06:54;102493.84;;;12.59;82.13
52032;BME280;38044;45.148;39.604;2022-10-17T08:09:20;102510.66;;;12.66;82.31
52032;BME280;38044;45.148;39.604;2022-10-17T08:11:46;102494.47;;;12.66;82.58
52032;BME280;38044;45.148;39.604;2022-10-17T08:14:13;102497.16;;;12.66;82.42
52032;BME280;38044;45.148;39.604;2022-10-17T08:16:42;102484.13;;;12.58;82.29
52032;BME280;38044;45.148;39.604;2022-10-17T08:19:08;102475.66;;;12.44;82.79
52032;BME280;38044;45.148;39.604;2022-10-17T08:21:36;102361.81;;;11.78;82.56
52032;BME280;38044;45.148;39.604;2022-10-17T08:24:03;102507.91;;;12.61;83.15
52032;BME280;38044;45.148;39.604;2022-10-17T08:26:29;102497.16;;;12.66;83.35
52032;BME280;38044;45.148;39.604;2022-10-17T08:28:55;102451.44;;;12.49;83.45
52032;BME280;38044;45.148;39.604;2022-10-17T08:31:21;102502.75;;;12.92;82.79
52032;BME280;38044;45.148;39.604;2022-10-17T08:33:48;102509.63;;;13.10;82.81
52032;BME280;38044;45.148;39.604;2022-10-17T08:36:16;102502.00;;;13.01;81.99
52032;BME280;38044;45.148;39.604;2022-10-17T08:38:43;102522.31;;;13.09;81.39
52032;BME280;38044;45.148;39.604;2022-10-17T08:47:15;102434.66;;;12.84;81.49
52032;BME280;38044;45.148;39.604;2022-10-17T08:54:57;102471.06;;;13.72;80.24
52032;BME280;38044;45.148;39.604;2022-10-17T08:57:24;102471.94;;;13.98;78.79
52032;BME280;38044;45.148;39.604;2022-10-17T08:59:51;102303.63;;;13.14;78.03
52032;BME280;38044;45.148;39.604;2022-10-17T09:19:16;102479.03;;;14.76;75.01
52032;BME280;38044;45.148;39.604;2022-10-17T09:21:52;102433.06;;;14.55;74.46
52032;BME280;38044;45.148;39.604;2022-10-17T09:27:08;102436.00;;;14.43;73.78
52032;BME280;38044;45.148;39.604;2022-10-17T09:29:36;102474.19;;;14.57;74.37
52032;BME280;38044;45.148;39.604;2022-10-17T09:32:18;102465.50;;;14.76;74.19
52032;BME280;38044;45.148;39.604;2022-10-17T09:34:44;102304.28;;;13.67;73.55
52032;BME280;38044;45.148;39.604;2022-10-17T09:37:14;102473.63;;;14.86;73.16
52032;BME280;38044;45.148;39.604;2022-10-17T09:39:42;102465.50;;;14.76;72.43
52032;BME280;38044;45.148;39.604;2022-10-17T09:42:16;102423.84;;;14.67;72.65
52032;BME280;38044;45.148;39.604;2022-10-17T09:47:28;102468.47;;;14.84;72.95
52032;BME280;38044;45.148;39.604;2022-10-17T09:49:56;102452.53;;;14.68;72.72
52032;BME280;38044;45.148;39.604;2022-10-17T09:52:39;102474.44;;;14.92;71.68
52032;BME280;38044;45.148;39.604;2022-10-17T09:58:22;102334.59;;;14.00;71.50
52032;BME280;38044;45.148;39.604;2022-10-17T10:00:48;102339.44;;;14.13;71.18
52032;BME280;38044;45.148;39.604;2022-10-17T10:03:23;102470.88;;;14.96;70.91
52032;BME280;38044;45.148;39.604;2022-10-17T10:08:46;102440.03;;;14.92;70.03
52032;BME280;38044;45.148;39.604;2022-10-17T10:11:14;102483.88;;;15.04;70.35
52032;BME280;38044;45.148;39.604;2022-10-17T10:13:42;102476.56;;;15.10;69.96
52032;BME280;38044;45.148;39.604;2022-10-17T10:16:30;102488.16;;;15.31;69.61
52032;BME280;38044;45.148;39.604;2022-10-17T10:18:57;102444.38;;;14.88;69.84
52032;BME280;38044;45.148;39.604;2022-10-17T10:21:25;102325.38;;;14.01;70.09
52032;BME280;38044;45.148;39.604;2022-10-17T10:26:34;102482.56;;;14.97;69.54
52032;BME280;38044;45.148;39.604;2022-10-17T10:29:21;102476.28;;;15.17;70.00
52032;BME280;38044;45.148;39.604;2022-10-17T10:31:49;102455.13;;;15.14;69.44
52032;BME280;38044;45.148;39.604;2022-10-17T10:34:20;102386.44;;;14.94;69.31
52032;BME280;38044;45.148;39.604;2022-10-17T10:42:02;102467.91;;;15.78;68.63
52032;BME280;38044;45.148;39.604;2022-10-17T10:44:30;102454.38;;;15.73;68.06
52032;BME280;38044;45.148;39.604;2022-10-17T10:47:30;102438.28;;;15.92;66.96
52032;BME280;38044;45.148;39.604;2022-10-17T10:50:20;102427.75;;;15.85;66.93
52032;BME280;38044;45.148;39.604;2022-10-17T10:56:02;102469.13;;;16.06;67.65
52032;BME280;38044;45.148;39.604;2022-10-17T11:06:36;102453.94;;;16.39;66.18
52032;BME280;38044;45.148;39.604;2022-10-17T11:09:18;102470.78;;;16.36;65.91
52032;BME280;38044;45.148;39.604;2022-10-17T11:11:57;102472.84;;;16.15;66.45
52032;BME280;38044;45.148;39.604;2022-10-17T11:17:29;102475.94;;;15.98;67.26
52032;BME280;38044;45.148;39.604;2022-10-17T11:20:11;102476.25;;;15.92;67.48
52032;BME280;38044;45.148;39.604;2022-10-17T11:22:46;102452.75;;;15.67;68.41
52032;BME280;38044;45.148;39.604;2022-10-17T11:25:37;102374.66;;;15.24;67.94
52032;BME280;38044;45.148;39.604;2022-10-17T11:28:12;102411.44;;;15.41;68.17
52032;BME280;38044;45.148;39.604;2022-10-17T11:30:50;102479.31;;;15.80;67.48
52032;BME280;38044;45.148;39.604;2022-10-17T11:35:58;102365.81;;;14.93;67.56
52032;BME280;38044;45.148;39.604;2022-10-17T11:41:19;102478.81;;;15.63;68.57
52032;BME280;38044;45.148;39.604;2022-10-17T11:46:43;102469.03;;;15.62;68.47
52032;BME280;38044;45.148;39.604;2022-10-17T11:49:15;102478.28;;;15.55;68.44
52032;BME280;38044;45.148;39.604;2022-10-17T11:51:46;102378.38;;;14.69;68.54
52032;BME280;38044;45.148;39.604;2022-10-17T12:02:47;102392.16;;;14.36;70.14
52032;BME280;38044;45.148;39.604;2022-10-17T12:05:36;102436.81;;;14.75;70.08
52032;BME280;38044;45.148;39.604;2022-10-17T12:19:31;102497.91;;;15.32;69.79
52032;BME280;38044;45.148;39.604;2022-10-17T12:26:55;102443.72;;;15.27;69.33
52032;BME280;38044;45.148;39.604;2022-10-17T12:29:27;102374.56;;;14.64;69.60
52032;BME280;38044;45.148;39.604;2022-10-17T12:32:10;102483.78;;;15.35;69.53
52032;BME280;38044;45.148;39.604;2022-10-17T12:34:37;102391.91;;;14.69;69.61
52032;BME280;38044;45.148;39.604;2022-10-17T12:37:03;102344.56;;;14.35;69.52
52032;BME280;38044;45.148;39.604;2022-10-17T12:41:54;102363.78;;;14.29;69.87
52032;BME280;38044;45.148;39.604;2022-10-17T12:49:41;102470.38;;;14.89;70.49
52032;BME280;38044;45.148;39.604;2022-10-17T12:55:18;102501.78;;;14.95;70.81
52032;BME280;38044;45.148;39.604;2022-10-17T12:57:54;102494.44;;;14.91;70.85
52032;BME280;38044;45.148;39.604;2022-10-17T13:03:17;102454.16;;;14.43;71.18
52032;BME280;38044;45.148;39.604;2022-10-17T13:05:50;102482.06;;;14.54;71.79
52032;BME280;38044;45.148;39.604;2022-10-17T13:08:25;102381.63;;;13.89;72.00
52032;BME280;38044;45.148;39.604;2022-10-17T13:10:53;102500.72;;;14.60;71.89
52032;BME280;38044;45.148;39.604;2022-10-17T13:13:44;102477.41;;;14.49;72.01
52032;BME280;38044;45.148;39.604;2022-10-17T13:16:42;102501.25;;;14.68;72.16
52032;BME280;38044;45.148;39.604;2022-10-17T13:19:20;102464.41;;;14.36;72.48
52032;BME280;38044;45.148;39.604;2022-10-17T13:21:59;102497.47;;;14.63;72.53
52032;BME280;38044;45.148;39.604;2022-10-17T13:24:31;102458.75;;;14.37;72.63
52032;BME280;38044;45.148;39.604;2022-10-17T13:26:58;102461.72;;;14.26;73.09
52032;BME280;38044;45.148;39.604;2022-10-17T13:29:25;102482.00;;;14.38;73.46
52032;BME280;38044;45.148;39.604;2022-10-17T13:31:59;102506.66;;;14.52;73.23
52032;BME280;38044;45.148;39.604;2022-10-17T13:34:30;102497.44;;;14.43;73.08
52032;BME280;38044;45.148;39.604;2022-10-17T13:37:04;102500.13;;;14.43;73.24
52032;BME280;38044;45.148;39.604;2022-10-17T13:39:36;102510.41;;;14.46;73.43
52032;BME280;38044;45.148;39.604;2022-10-17T13:42:04;102470.06;;;14.24;72.84
52032;BME280;38044;45.148;39.604;2022-10-17T13:44:34;102485.50;;;14.29;72.92
52032;BME280;38044;45.148;39.604;2022-10-17T13:47:00;102366.16;;;13.54;71.89
52032;BME280;38044;45.148;39.604;2022-10-17T13:49:30;102503.38;;;14.35;72.19
52032;BME280;38044;45.148;39.604;2022-10-17T13:51:57;102385.09;;;13.54;72.46
52032;BME280;38044;45.148;39.604;2022-10-17T13:54:45;102512.03;;;14.37;72.51
52032;BME280;38044;45.148;39.604;2022-10-17T13:57:21;102412.38;;;13.67;72.63
52032;BME280;38044;45.148;39.604;2022-10-17T13:59:58;102381.56;;;13.48;72.61
52032;BME280;38044;45.148;39.604;2022-10-17T14:02:26;102514.69;;;14.22;73.08
52032;BME280;38044;45.148;39.604;2022-10-17T14:05:11;102501.19;;;14.16;73.14
52032;BME280;38044;45.148;39.604;2022-10-17T14:07:55;102522.84;;;14.27;72.41
52032;BME280;38044;45.148;39.604;2022-10-17T14:10:32;102388.81;;;13.37;72.50
52032;BME280;38044;45.148;39.604;2022-10-17T14:13:00;102521.19;;;14.15;72.65
52032;BME280;38044;45.148;39.604;2022-10-17T14:15:31;102382.81;;;13.25;72.62
52032;BME280;38044;45.148;39.604;2022-10-17T14:18:01;102535.25;;;14.12;72.47
52032;BME280;38044;45.148;39.604;2022-10-17T14:20:28;102507.06;;;13.93;72.39
52032;BME280;38044;45.148;39.604;2022-10-17T14:22:55;102482.13;;;13.70;73.04
52032;BME280;38044;45.148;39.604;2022-10-17T14:25:36;102380.00;;;13.10;72.57
52032;BME280;38044;45.148;39.604;2022-10-17T14:28:11;102533.59;;;14.06;72.62
52032;BME280;38044;45.148;39.604;2022-10-17T14:30:44;102537.94;;;14.07;72.85
52032;BME280;38044;45.148;39.604;2022-10-17T14:33:36;102504.91;;;13.95;72.56
52032;BME280;38044;45.148;39.604;2022-10-17T14:36:02;102502.97;;;13.80;72.65
52032;BME280;38044;45.148;39.604;2022-10-17T14:38:29;102481.03;;;13.66;72.99
52032;BME280;38044;45.148;39.604;2022-10-17T14:41:11;102530.34;;;13.94;73.25
52032;BME280;38044;45.148;39.604;2022-10-17T14:43:39;102536.28;;;13.96;73.04
52032;BME280;38044;45.148;39.604;2022-10-17T14:46:05;102439.31;;;13.37;73.05
52032;BME280;38044;45.148;39.604;2022-10-17T14:48:31;102510.53;;;13.78;73.17
52032;BME280;38044;45.148;39.604;2022-10-17T14:51:15;102381.88;;;13.04;73.00
52032;BME280;38044;45.148;39.604;2022-10-17T14:53:43;102385.63;;;12.98;73.29
52032;BME280;38044;45.148;39.604;2022-10-17T14:56:23;102353.19;;;12.82;73.43
52032;BME280;38044;45.148;39.604;2022-10-17T14:58:49;102509.16;;;13.70;73.37
52032;BME280;38044;45.148;39.604;2022-10-17T15:01:16;102522.41;;;13.72;73.36
52032;BME280;38044;45.148;39.604;2022-10-17T15:03:42;102541.63;;;13.81;73.76
52032;BME280;38044;45.148;39.604;2022-10-17T15:06:17;102527.84;;;13.77;73.77
52032;BME280;38044;45.148;39.604;2022-10-17T15:08:43;102532.41;;;13.71;73.38
52032;BME280;38044;45.148;39.604;2022-10-17T15:11:10;102539.47;;;13.83;73.30
52032;BME280;38044;45.148;39.604;2022-10-17T15:13:37;102544.88;;;13.83;73.13
52032;BME280;38044;45.148;39.604;2022-10-17T15:16:17;102422.66;;;13.02;73.46